createdAt,value
2023-04-25T00:01:42.631Z,5.58
2023-04-25T00:04:28.450Z,5.73
2023-04-25T00:07:14.145Z,5.40
2023-04-25T00:09:59.530Z,5.42
2023-04-25T00:12:45.026Z,5.30
2023-04-25T00:15:30.311Z,5.44
2023-04-25T00:18:16.819Z,5.28
2023-04-25T00:21:02.309Z,5.21
2023-04-25T00:23:47.634Z,5.20
2023-04-25T00:26:33.058Z,5.10
2023-04-25T00:29:19.535Z,5.36
2023-04-25T00:32:04.924Z,5.32
2023-04-25T00:34:50.318Z,5.20
2023-04-25T00:37:35.669Z,5.13
2023-04-25T00:40:21.312Z,5.22
2023-04-25T00:43:06.642Z,5.36
2023-04-25T00:45:52.096Z,5.24
2023-04-25T00:48:37.388Z,5.11
2023-04-25T00:51:22.411Z,4.90
2023-04-25T00:54:07.900Z,4.94
2023-04-25T00:56:53.031Z,4.93
2023-04-25T00:59:38.572Z,4.95
2023-04-25T01:02:23.896Z,4.73
2023-04-25T01:05:09.226Z,4.97
2023-04-25T01:07:54.683Z,4.87
2023-04-25T01:10:39.988Z,4.75
2023-04-25T01:13:25.517Z,4.58
2023-04-25T01:16:10.907Z,5.00
2023-04-25T01:18:56.265Z,4.93
2023-04-25T01:21:41.586Z,4.44
2023-04-25T01:24:26.979Z,4.78
2023-04-25T01:27:12.468Z,4.52
2023-04-25T01:29:57.752Z,4.48
2023-04-25T01:32:43.159Z,4.33
2023-04-25T01:35:28.120Z,4.41
2023-04-25T01:38:13.450Z,4.42
2023-04-25T01:40:58.922Z,4.57
2023-04-25T01:43:44.072Z,4.51
2023-04-25T01:46:29.096Z,4.57
2023-04-25T01:49:14.324Z,4.44
2023-04-25T01:51:59.711Z,4.42
2023-04-25T01:54:45.163Z,4.09
2023-04-25T01:57:30.470Z,4.46
2023-04-25T02:00:15.666Z,4.16
2023-04-25T02:03:01.375Z,4.29
2023-04-25T02:05:46.625Z,3.96
2023-04-25T02:08:31.920Z,4.29
2023-04-25T02:11:17.277Z,4.30
2023-04-25T02:14:02.768Z,4.10
2023-04-25T02:16:48.113Z,3.84
2023-04-25T02:19:33.409Z,4.12
2023-04-25T02:22:18.729Z,3.88
2023-04-25T02:25:04.162Z,3.95
2023-04-25T02:27:49.378Z,4.26
2023-04-25T02:30:34.671Z,4.08
2023-04-25T02:33:20.160Z,3.89
2023-04-25T02:36:05.524Z,3.84
2023-04-25T02:38:50.911Z,3.89
2023-04-25T02:41:36.233Z,3.77
2023-04-25T02:44:21.718Z,3.86
2023-04-25T02:47:07.269Z,3.83
2023-04-25T02:49:52.671Z,4.13
2023-04-25T02:52:37.948Z,4.00
2023-04-25T02:55:23.985Z,4.00
2023-04-25T02:58:09.761Z,3.98
2023-04-25T03:00:55.053Z,3.79
2023-04-25T03:03:42.183Z,3.81
2023-04-25T03:06:27.214Z,3.96
2023-04-25T03:09:12.568Z,3.98
2023-04-25T03:11:58.132Z,3.83
2023-04-25T03:14:43.573Z,3.78
2023-04-25T03:17:28.961Z,3.56
2023-04-25T03:20:14.418Z,3.77
2023-04-25T03:22:59.638Z,3.68
2023-04-25T03:25:44.815Z,3.84
2023-04-25T03:28:30.287Z,3.57
2023-04-25T03:31:15.638Z,3.87
2023-04-25T03:34:00.716Z,3.59
2023-04-25T03:36:45.955Z,3.68
2023-04-25T03:39:31.355Z,3.61
2023-04-25T03:42:16.723Z,3.66
2023-04-25T03:45:02.114Z,3.47
2023-04-25T03:47:47.593Z,3.39
2023-04-25T03:50:33.035Z,3.74
2023-04-25T03:53:18.536Z,3.67
2023-04-25T03:56:03.776Z,3.52
2023-04-25T03:58:49.369Z,3.45
2023-04-25T04:01:34.799Z,3.50
2023-04-25T04:04:20.424Z,3.49
2023-04-25T04:07:05.625Z,3.60
2023-04-25T04:09:50.715Z,3.46
2023-04-25T04:12:36.095Z,3.27
2023-04-25T04:15:21.527Z,3.46
2023-04-25T04:18:06.752Z,3.29
2023-04-25T04:20:52.089Z,3.41
2023-04-25T04:23:39.536Z,3.25
2023-04-25T04:26:24.705Z,3.32
2023-04-25T04:31:54.513Z,3.34
2023-04-25T04:34:39.862Z,3.03
2023-04-25T04:37:25.226Z,3.28
2023-04-25T04:40:10.640Z,3.12
2023-04-25T04:42:55.988Z,3.33
2023-04-25T04:45:41.325Z,3.01
2023-04-25T04:48:26.754Z,2.94
2023-04-25T04:51:12.159Z,3.27
2023-04-25T04:53:57.567Z,3.07
2023-04-25T04:56:42.915Z,2.85
2023-04-25T04:59:28.259Z,3.08
2023-04-25T05:02:13.858Z,3.52
2023-04-25T05:04:59.274Z,3.63
2023-04-25T05:07:44.501Z,3.27
2023-04-25T05:10:29.801Z,3.50
2023-04-25T05:13:15.249Z,3.38
2023-04-25T05:16:00.558Z,3.52
2023-04-25T05:18:45.878Z,3.45
2023-04-25T05:21:31.141Z,3.35
2023-04-25T05:24:16.507Z,3.52
2023-04-25T05:27:01.878Z,3.76
2023-04-25T05:29:47.079Z,4.05
2023-04-25T05:32:32.146Z,3.97
2023-04-25T05:35:17.407Z,4.18
2023-04-25T05:38:02.638Z,3.96
2023-04-25T05:40:48.024Z,4.17
2023-04-25T05:43:33.367Z,3.96
2023-04-25T05:46:18.980Z,3.90
2023-04-25T05:49:04.200Z,4.11
2023-04-25T05:51:50.003Z,3.93
2023-04-25T05:54:35.264Z,3.91
2023-04-25T05:57:20.317Z,3.79
2023-04-25T06:00:05.709Z,3.74
2023-04-25T06:02:51.163Z,3.54
2023-04-25T06:05:36.429Z,3.80
2023-04-25T06:08:21.602Z,3.59
2023-04-25T06:11:07.086Z,3.70
2023-04-25T06:13:52.738Z,3.65
2023-04-25T06:16:38.285Z,3.57
2023-04-25T06:19:23.651Z,3.45
2023-04-25T06:22:08.978Z,3.71
2023-04-25T06:24:54.407Z,3.27
2023-04-25T06:27:39.689Z,3.45
2023-04-25T06:30:25.141Z,3.56
2023-04-25T06:33:10.320Z,3.36
2023-04-25T06:35:55.676Z,3.36
2023-04-25T06:38:41.078Z,3.50
2023-04-25T06:41:26.465Z,3.57
2023-04-25T06:44:11.964Z,3.46
2023-04-25T06:46:57.477Z,3.74
2023-04-25T06:49:42.621Z,3.68
2023-04-25T06:52:28.072Z,3.64
2023-04-25T06:55:13.095Z,3.87
2023-04-25T06:57:58.567Z,3.51
2023-04-25T07:00:43.925Z,3.88
2023-04-25T07:03:29.469Z,3.92
2023-04-25T07:06:14.950Z,3.82
2023-04-25T07:09:00.314Z,3.77
2023-04-25T07:11:45.674Z,3.84
2023-04-25T07:14:30.967Z,3.76
2023-04-25T07:17:16.502Z,3.53
2023-04-25T07:20:01.848Z,3.86
2023-04-25T07:22:46.794Z,3.78
2023-04-25T07:25:32.338Z,3.54
2023-04-25T07:28:19.401Z,3.47
2023-04-25T07:31:04.778Z,3.47
2023-04-25T07:33:49.728Z,3.49
2023-04-25T07:36:35.087Z,3.61
2023-04-25T07:39:20.345Z,3.62
2023-04-25T07:42:06.619Z,3.26
2023-04-25T07:44:52.072Z,3.29
2023-04-25T07:47:37.451Z,3.56
2023-04-25T07:50:22.715Z,3.33
2023-04-25T07:53:08.071Z,3.32
2023-04-25T07:55:53.332Z,3.29
2023-04-25T07:58:38.803Z,3.16
2023-04-25T08:01:24.063Z,2.97
2023-04-25T08:04:09.396Z,3.12
2023-04-25T08:06:54.800Z,3.16
2023-04-25T08:09:40.065Z,3.11
2023-04-25T08:12:25.577Z,3.07
2023-04-25T08:15:10.812Z,3.03
2023-04-25T08:17:56.306Z,2.93
2023-04-25T08:20:41.683Z,3.02
2023-04-25T08:23:26.743Z,3.01
2023-04-25T08:26:12.235Z,3.02
2023-04-25T08:28:57.764Z,3.00
2023-04-25T08:31:43.253Z,2.85
2023-04-25T08:34:28.559Z,2.97
2023-04-25T08:37:13.835Z,2.89
2023-04-25T08:39:59.375Z,2.98
2023-04-25T08:42:44.532Z,2.97
2023-04-25T08:45:30.008Z,3.08
2023-04-25T08:48:15.238Z,2.87
2023-04-25T08:51:00.679Z,2.78
2023-04-25T08:53:46.377Z,2.66
2023-04-25T08:56:31.276Z,2.69
2023-04-25T08:59:16.716Z,2.96
2023-04-25T09:02:02.188Z,2.69
2023-04-25T09:04:47.465Z,2.88
2023-04-25T09:07:32.895Z,2.74
2023-04-25T09:10:18.273Z,3.06
2023-04-25T09:13:03.865Z,2.92
2023-04-25T09:15:49.250Z,2.78
2023-04-25T09:18:34.588Z,3.00
2023-04-25T09:21:19.886Z,2.74
2023-04-25T09:24:05.389Z,2.60
2023-04-25T09:26:50.711Z,2.77
2023-04-25T09:29:36.169Z,2.65
2023-04-25T09:32:21.794Z,2.77
2023-04-25T09:35:07.006Z,2.57
2023-04-25T09:37:52.454Z,2.78
2023-04-25T09:40:37.834Z,2.66
2023-04-25T09:43:23.099Z,2.60
2023-04-25T09:46:08.447Z,2.31
2023-04-25T09:48:53.866Z,2.75
2023-04-25T09:51:39.403Z,2.58
2023-04-25T09:54:24.790Z,2.36
2023-04-25T09:57:10.288Z,2.45
2023-04-25T09:59:55.860Z,2.31
2023-04-25T10:02:41.289Z,2.44
2023-04-25T10:05:26.445Z,2.49
2023-04-25T10:08:11.896Z,2.38
2023-04-25T10:10:57.222Z,2.39
2023-04-25T10:13:42.644Z,2.21
2023-04-25T10:16:28.128Z,2.10
2023-04-25T10:19:13.564Z,2.23
2023-04-25T10:21:58.805Z,2.49
2023-04-25T10:24:44.145Z,2.24
2023-04-25T10:27:29.617Z,2.39
2023-04-25T10:30:15.006Z,2.34
2023-04-25T10:33:00.537Z,2.23
2023-04-25T10:35:45.951Z,2.15
2023-04-25T10:38:31.232Z,2.33
2023-04-25T10:41:16.622Z,2.11
2023-04-25T10:44:02.054Z,2.90
2023-04-25T10:46:47.685Z,4.89
2023-04-25T10:49:32.846Z,6.55
2023-04-25T10:52:18.168Z,7.98
2023-04-25T10:55:03.499Z,7.85
2023-04-25T10:57:48.962Z,7.94
2023-04-25T11:00:48.023Z,7.86
2023-04-25T11:03:39.243Z,7.76
2023-04-25T11:06:24.734Z,7.70
2023-04-25T11:09:10.269Z,7.43
2023-04-25T11:11:55.675Z,7.36
2023-04-25T11:17:31.057Z,6.93
2023-04-25T11:20:16.148Z,6.35
2023-04-25T11:23:01.491Z,6.16
2023-04-25T11:25:46.770Z,5.70
2023-04-25T11:28:32.247Z,5.52
2023-04-25T11:31:17.781Z,5.18
2023-04-25T11:34:02.996Z,4.88
2023-04-25T11:36:48.562Z,4.76
2023-04-25T11:39:33.658Z,4.29
2023-04-25T11:42:19.164Z,4.16
2023-04-25T11:45:04.738Z,4.04
2023-04-25T11:47:50.312Z,4.03
2023-04-25T11:50:35.542Z,3.79
2023-04-25T11:53:21.785Z,3.71
2023-04-25T11:56:07.248Z,3.28
2023-04-25T11:58:55.813Z,3.50
2023-04-25T12:01:41.067Z,3.29
2023-04-25T12:04:26.629Z,3.39
2023-04-25T12:07:12.107Z,3.12
2023-04-25T12:09:57.345Z,3.06
2023-04-25T12:12:42.820Z,3.38
2023-04-25T12:15:27.958Z,3.26
2023-04-25T12:18:13.454Z,3.35
2023-04-25T12:20:58.568Z,3.25
2023-04-25T12:23:44.053Z,3.39
2023-04-25T12:26:29.472Z,3.25
2023-04-25T12:29:14.865Z,3.11
2023-04-25T12:32:00.477Z,3.14
2023-04-25T12:34:45.616Z,2.87
2023-04-25T12:37:30.932Z,3.09
2023-04-25T12:40:16.334Z,3.00
2023-04-25T12:43:01.779Z,3.14
2023-04-25T12:45:47.217Z,3.02
2023-04-25T12:48:32.541Z,3.07
2023-04-25T12:51:18.002Z,3.04
2023-04-25T12:54:03.515Z,2.89
2023-04-25T12:56:48.849Z,2.93
2023-04-25T12:59:34.305Z,2.75
2023-04-25T13:02:19.670Z,2.91
2023-04-25T13:05:05.519Z,3.04
2023-04-25T13:07:50.589Z,2.89
2023-04-25T13:10:36.171Z,2.93
2023-04-25T13:13:21.408Z,2.90
2023-04-25T13:16:06.528Z,2.73
2023-04-25T13:18:51.951Z,2.64
2023-04-25T13:21:37.124Z,2.72
2023-04-25T13:24:22.696Z,2.92
2023-04-25T13:27:08.102Z,2.77
2023-04-25T13:29:53.538Z,2.68
2023-04-25T13:32:38.821Z,2.66
2023-04-25T13:35:24.084Z,2.81
2023-04-25T13:38:09.587Z,2.77
2023-04-25T13:40:54.778Z,2.69
2023-04-25T13:43:39.995Z,2.68
2023-04-25T13:46:44.901Z,2.67
2023-04-25T13:49:30.466Z,2.54
2023-04-25T13:52:15.796Z,2.57
2023-04-25T13:55:01.295Z,2.58
2023-04-25T13:57:46.765Z,2.61
2023-04-25T14:00:31.856Z,2.44
2023-04-25T14:03:17.400Z,2.35
2023-04-25T14:06:02.654Z,2.57
2023-04-25T14:08:47.756Z,2.49
2023-04-25T14:11:33.140Z,2.69
2023-04-25T14:14:18.771Z,2.58
2023-04-25T14:17:04.007Z,2.44
2023-04-25T14:19:49.556Z,2.42
2023-04-25T14:22:34.840Z,2.53
2023-04-25T14:25:20.293Z,2.46
2023-04-25T14:28:05.859Z,2.42
2023-04-25T14:30:51.241Z,2.62
2023-04-25T14:33:36.675Z,2.54
2023-04-25T14:36:22.088Z,2.23
2023-04-25T14:39:07.463Z,2.52
2023-04-25T14:41:52.928Z,2.25
2023-04-25T14:44:38.393Z,2.42
2023-04-25T14:47:23.787Z,2.47
2023-04-25T14:50:09.065Z,2.27
2023-04-25T14:52:54.511Z,2.58
2023-04-25T14:55:39.656Z,2.20
2023-04-25T14:58:25.156Z,2.37
2023-04-25T15:01:10.657Z,2.37
2023-04-25T15:03:56.400Z,2.45
2023-04-25T15:06:41.967Z,2.36
2023-04-25T15:09:27.181Z,2.32
2023-04-25T15:12:12.644Z,2.23
2023-04-25T15:14:57.961Z,2.51
2023-04-25T15:17:43.192Z,2.30
2023-04-25T15:20:28.657Z,2.39
2023-04-25T15:23:13.890Z,2.31
2023-04-25T15:25:59.085Z,2.49
2023-04-25T15:28:44.416Z,2.30
2023-04-25T15:31:29.713Z,2.47
2023-04-25T15:34:15.129Z,2.58
2023-04-25T15:37:00.466Z,2.59
2023-04-25T15:39:45.800Z,2.42
2023-04-25T15:42:31.096Z,2.46
2023-04-25T15:45:16.426Z,2.48
2023-04-25T15:48:01.348Z,2.77
2023-04-25T15:50:46.660Z,2.59
2023-04-25T15:53:32.342Z,2.57
2023-04-25T15:56:17.632Z,2.40
2023-04-25T15:59:02.905Z,2.65
2023-04-25T16:01:47.932Z,2.37
2023-04-25T16:04:33.376Z,2.60
2023-04-25T16:07:18.534Z,2.84
2023-04-25T16:10:03.765Z,2.79
2023-04-25T16:12:51.914Z,2.55
2023-04-25T16:15:37.405Z,2.58
2023-04-25T16:18:22.655Z,2.32
2023-04-25T16:21:07.900Z,2.36
2023-04-25T16:23:53.385Z,2.52
2023-04-25T16:26:38.576Z,2.50
2023-04-25T16:29:23.911Z,2.61
2023-04-25T16:32:08.948Z,2.40
2023-04-25T16:34:54.248Z,2.33
2023-04-25T16:37:39.572Z,2.61
2023-04-25T16:40:25.001Z,2.50
2023-04-25T16:43:10.352Z,2.67
2023-04-25T16:45:55.822Z,2.55
2023-04-25T16:48:41.026Z,2.84
2023-04-25T16:51:26.436Z,5.09
2023-04-25T16:54:11.695Z,6.39
2023-04-25T16:56:56.758Z,6.32
2023-04-25T16:59:42.040Z,5.91
2023-04-25T17:02:27.295Z,6.04
2023-04-25T17:05:12.393Z,6.17
2023-04-25T17:07:57.774Z,7.28
2023-04-25T17:10:42.924Z,9.60
2023-04-25T17:13:30.860Z,8.81
2023-04-25T17:16:16.826Z,8.07
2023-04-25T17:19:01.994Z,15.53
2023-04-25T17:21:47.452Z,29.97
2023-04-25T17:24:32.674Z,48.51
2023-04-25T17:27:17.868Z,62.75
2023-04-25T17:30:03.251Z,49.66
2023-04-25T17:32:48.724Z,43.05
2023-04-25T17:35:33.844Z,38.89
2023-04-25T17:38:19.234Z,37.46
2023-04-25T17:41:04.656Z,36.59
2023-04-25T17:43:49.749Z,36.04
2023-04-25T17:46:35.380Z,35.94
2023-04-25T17:49:20.532Z,35.85
2023-04-25T17:52:05.969Z,35.14
2023-04-25T17:54:51.474Z,34.23
2023-04-25T17:57:36.690Z,34.44
2023-04-25T18:00:21.625Z,34.19
2023-04-25T18:03:07.064Z,33.22
2023-04-25T18:05:52.524Z,32.94
2023-04-25T18:08:37.720Z,32.70
2023-04-25T18:11:23.174Z,32.05
2023-04-25T18:14:08.645Z,32.07
2023-04-25T18:16:54.032Z,31.54
2023-04-25T18:19:39.408Z,30.38
2023-04-25T18:22:24.725Z,30.25
2023-04-25T18:25:10.193Z,30.27
2023-04-25T18:27:55.616Z,29.99
2023-04-25T18:30:41.041Z,29.30
2023-04-25T18:33:26.514Z,29.47
2023-04-25T18:36:11.715Z,28.13
2023-04-25T18:38:59.509Z,28.69
2023-04-25T18:41:53.656Z,27.91
2023-04-25T18:44:43.813Z,27.55
2023-04-25T18:47:28.840Z,27.29
2023-04-25T18:50:14.128Z,26.98
2023-04-25T18:52:59.650Z,26.51
2023-04-25T18:55:44.934Z,26.05
2023-04-25T18:58:30.453Z,26.00
2023-04-25T19:01:15.916Z,26.96
2023-04-25T19:04:02.273Z,25.64
2023-04-25T19:06:49.660Z,25.32
2023-04-25T19:09:35.129Z,25.40
2023-04-25T19:12:23.380Z,25.14
2023-04-25T19:15:09.936Z,24.94
2023-04-25T19:17:55.442Z,24.36
2023-04-25T19:20:40.819Z,24.50
2023-04-25T19:23:26.322Z,23.87
2023-04-25T19:26:11.541Z,23.79
2023-04-25T19:28:56.864Z,23.01
2023-04-25T19:31:42.379Z,23.50
2023-04-25T19:34:27.619Z,22.76
2023-04-25T19:37:13.087Z,23.35
2023-04-25T19:39:58.343Z,22.34
2023-04-25T19:42:43.501Z,22.73
2023-04-25T19:45:28.760Z,21.93
2023-04-25T19:48:13.772Z,22.15
2023-04-25T19:50:59.099Z,21.75
2023-04-25T19:53:44.249Z,21.90
2023-04-25T19:56:29.714Z,21.44
2023-04-25T19:59:15.130Z,21.29
2023-04-25T20:02:00.498Z,21.32
2023-04-25T20:04:45.894Z,20.54
2023-04-25T20:07:31.274Z,20.92
2023-04-25T20:10:16.730Z,20.58
2023-04-25T20:13:02.291Z,20.61
2023-04-25T20:15:47.488Z,20.08
2023-04-25T20:18:32.494Z,19.96
2023-04-25T20:21:18.063Z,19.64
2023-04-25T20:24:03.152Z,20.50
2023-04-25T20:26:48.627Z,19.52
2023-04-25T20:29:33.988Z,19.26
2023-04-25T20:32:19.094Z,19.47
2023-04-25T20:35:04.439Z,19.33
2023-04-25T20:37:49.617Z,18.39
2023-04-25T20:40:34.886Z,18.42
2023-04-25T20:43:20.354Z,18.33
2023-04-25T20:46:05.789Z,18.27
2023-04-25T20:48:51.271Z,18.16
2023-04-25T20:51:36.403Z,17.88
2023-04-25T20:54:21.889Z,17.34
2023-04-25T20:57:07.212Z,18.00
2023-04-25T20:59:52.569Z,17.65
2023-04-25T21:02:38.044Z,17.78
2023-04-25T21:05:23.189Z,17.61
2023-04-25T21:08:08.679Z,17.15
2023-04-25T21:10:54.028Z,17.15
2023-04-25T21:13:39.430Z,17.35
2023-04-25T21:16:24.879Z,17.15
2023-04-25T21:19:10.113Z,16.98
2023-04-25T21:21:55.392Z,16.95
2023-04-25T21:24:40.782Z,17.13
2023-04-25T21:27:26.206Z,16.50
2023-04-25T21:30:11.630Z,16.52
2023-04-25T21:32:57.353Z,16.42
2023-04-25T21:35:42.676Z,16.57
2023-04-25T21:38:28.042Z,16.59
2023-04-25T21:41:13.501Z,16.42
2023-04-25T21:43:58.716Z,16.32
2023-04-25T21:46:44.224Z,16.09
2023-04-25T21:49:29.674Z,16.03
2023-04-25T21:52:14.750Z,16.17
2023-04-25T21:55:00.242Z,15.66
2023-04-25T21:57:45.663Z,15.34
2023-04-25T22:00:31.171Z,15.65
2023-04-25T22:03:16.546Z,15.83
2023-04-25T22:06:01.914Z,15.80
2023-04-25T22:08:47.424Z,15.34
2023-04-25T22:11:32.780Z,15.00
2023-04-25T22:14:18.329Z,15.23
2023-04-25T22:17:03.793Z,15.09
2023-04-25T22:19:49.645Z,14.85
2023-04-25T22:22:36.039Z,15.13
2023-04-25T22:25:21.387Z,15.01
2023-04-25T22:28:06.761Z,15.19
2023-04-25T22:30:52.117Z,15.12
2023-04-25T22:33:37.630Z,14.55
2023-04-25T22:36:23.194Z,15.18
2023-04-25T22:39:08.594Z,15.03
2023-04-25T22:41:53.985Z,14.46
2023-04-25T22:44:39.525Z,14.79
2023-04-25T22:47:25.036Z,14.31
2023-04-25T22:50:10.187Z,14.53
2023-04-25T22:52:55.499Z,14.59
2023-04-25T22:55:40.878Z,14.49
2023-04-25T22:58:25.818Z,14.29
2023-04-25T23:01:11.314Z,13.86
2023-04-25T23:03:56.933Z,13.80
2023-04-25T23:06:42.475Z,13.98
2023-04-25T23:09:27.883Z,14.08
2023-04-25T23:12:13.256Z,13.92
2023-04-25T23:14:58.693Z,14.12
2023-04-25T23:17:44.135Z,13.48
2023-04-25T23:20:29.492Z,13.50
2023-04-25T23:23:15.006Z,13.48
2023-04-25T23:26:00.513Z,13.44
2023-04-25T23:28:45.944Z,13.77
2023-04-25T23:31:31.485Z,13.19
2023-04-25T23:34:16.832Z,13.11
2023-04-25T23:37:02.222Z,13.41
2023-04-25T23:39:47.543Z,13.45
2023-04-25T23:42:33.025Z,12.96
2023-04-25T23:45:18.256Z,12.50
2023-04-25T23:48:03.351Z,12.72
2023-04-25T23:50:48.703Z,13.16
2023-04-25T23:53:34.032Z,13.13
2023-04-25T23:56:19.373Z,12.74
2023-04-25T23:59:04.732Z,13.12
